sensor_id;sensor_type;location;lat;lon;timestamp;pressure;altitude;pressure_sealevel;temperature;humidity
77431;BME280;66498;48.564;19.272;2023-02-02T00:00:44;96942.63;;;1.13;87.34
77431;BME280;66498;48.564;19.272;2023-02-02T00:03:09;96951.19;;;1.13;87.44
77431;BME280;66498;48.564;19.272;2023-02-02T00:05:35;96948.81;;;1.27;86.34
77431;BME280;66498;48.564;19.272;2023-02-02T00:08:01;96940.84;;;1.13;87.23
77431;BME280;66498;48.564;19.272;2023-02-02T00:10:27;96933.63;;;1.09;87.29
77431;BME280;66498;48.564;19.272;2023-02-02T00:12:53;96921.31;;;1.11;86.93
77431;BME280;66498;48.564;19.272;2023-02-02T00:15:22;96914.78;;;1.00;88.01
77431;BME280;66498;48.564;19.272;2023-02-02T00:17:48;96906.75;;;0.95;88.54
77431;BME280;66498;48.564;19.272;2023-02-02T00:20:14;96903.00;;;0.83;88.86
77431;BME280;66498;48.564;19.272;2023-02-02T00:22:40;96883.31;;;0.82;89.24
77431;BME280;66498;48.564;19.272;2023-02-02T00:25:06;96891.06;;;0.82;88.89
77431;BME280;66498;48.564;19.272;2023-02-02T00:27:31;96888.09;;;0.85;89.13
77431;BME280;66498;48.564;19.272;2023-02-02T00:29:57;96890.25;;;0.81;88.67
77431;BME280;66498;48.564;19.272;2023-02-02T04:41:47;96949.00;;;0.64;82.30
77431;BME280;66498;48.564;19.272;2023-02-02T04:44:14;96957.91;;;0.62;82.90
77431;BME280;66498;48.564;19.272;2023-02-02T04:46:43;96954.81;;;0.66;81.79
77431;BME280;66498;48.564;19.272;2023-02-02T04:49:09;96949.00;;;0.64;81.90
77431;BME280;66498;48.564;19.272;2023-02-02T04:51:39;96954.88;;;0.58;82.18
77431;BME280;66498;48.564;19.272;2023-02-02T04:54:05;96954.53;;;0.61;80.98
77431;BME280;66498;48.564;19.272;2023-02-02T04:56:31;96958.88;;;0.61;81.34
77431;BME280;66498;48.564;19.272;2023-02-02T04:58:56;96958.88;;;0.61;81.31
77431;BME280;66498;48.564;19.272;2023-02-02T05:01:22;96957.00;;;0.55;81.68
77431;BME280;66498;48.564;19.272;2023-02-02T05:03:48;96961.69;;;0.51;81.79
77431;BME280;66498;48.564;19.272;2023-02-02T05:06:15;96964.16;;;0.44;81.84
77431;BME280;66498;48.564;19.272;2023-02-02T05:08:41;96959.41;;;0.56;80.51
77431;BME280;66498;48.564;19.272;2023-02-02T05:11:08;96958.13;;;0.52;80.72
77431;BME280;66498;48.564;19.272;2023-02-02T05:13:34;96967.31;;;0.55;80.43
77431;BME280;66498;48.564;19.272;2023-02-02T05:16:00;96963.00;;;0.47;81.27
77431;BME280;66498;48.564;19.272;2023-02-02T05:18:25;96969.25;;;0.53;80.17
77431;BME280;66498;48.564;19.272;2023-02-02T05:20:51;96968.75;;;0.57;80.02
77431;BME280;66498;48.564;19.272;2023-02-02T05:23:17;96964.44;;;0.50;79.56
77431;BME280;66498;48.564;19.272;2023-02-02T05:25:43;96977.81;;;0.53;80.26
77431;BME280;66498;48.564;19.272;2023-02-02T05:28:09;96975.22;;;0.53;79.80
77431;BME280;66498;48.564;19.272;2023-02-02T05:30:38;96970.94;;;0.45;80.40
77431;BME280;66498;48.564;19.272;2023-02-02T05:33:03;96969.25;;;0.53;78.77
77431;BME280;66498;48.564;19.272;2023-02-02T05:35:29;96971.66;;;0.54;78.91
77431;BME280;66498;48.564;19.272;2023-02-02T05:37:54;96978.16;;;0.50;79.05
77431;BME280;66498;48.564;19.272;2023-02-02T05:40:20;96981.53;;;0.51;79.18
77431;BME280;66498;48.564;19.272;2023-02-02T05:42:47;96980.28;;;0.46;79.21
77431;BME280;66498;48.564;19.272;2023-02-02T05:45:13;96981.47;;;0.36;80.22
77431;BME280;66498;48.564;19.272;2023-02-02T05:47:38;96980.91;;;0.49;79.33
77431;BME280;66498;48.564;19.272;2023-02-02T05:50:04;96978.22;;;0.42;79.90
77431;BME280;66498;48.564;19.272;2023-02-02T05:52:32;96983.72;;;0.39;80.26
77431;BME280;66498;48.564;19.272;2023-02-02T05:54:58;96986.16;;;0.32;80.57
77431;BME280;66498;48.564;19.272;2023-02-02T05:57:24;96979.88;;;0.35;80.22
77431;BME280;66498;48.564;19.272;2023-02-02T05:59:49;96984.97;;;0.43;79.83
77431;BME280;66498;48.564;19.272;2023-02-02T06:02:15;96975.97;;;0.39;79.57
77431;BME280;66498;48.564;19.272;2023-02-02T06:04:40;96974.84;;;0.41;79.85
77431;BME280;66498;48.564;19.272;2023-02-02T06:07:06;96981.47;;;0.36;80.31
77431;BME280;66498;48.564;19.272;2023-02-02T06:09:31;96976.63;;;0.41;79.67
77431;BME280;66498;48.564;19.272;2023-02-02T06:11:57;96986.69;;;0.28;80.58
77431;BME280;66498;48.564;19.272;2023-02-02T06:14:22;96984.50;;;0.39;79.56
77431;BME280;66498;48.564;19.272;2023-02-02T06:16:48;96985.78;;;0.43;79.50
77431;BME280;66498;48.564;19.272;2023-02-02T06:19:13;96993.72;;;0.42;80.19
77431;BME280;66498;48.564;19.272;2023-02-02T06:21:39;96983.78;;;0.31;80.53
77431;BME280;66498;48.564;19.272;2023-02-02T06:24:04;96993.84;;;0.40;80.20
77431;BME280;66498;48.564;19.272;2023-02-02T06:26:30;97003.56;;;0.38;80.47
77431;BME280;66498;48.564;19.272;2023-02-02T06:28:55;96995.81;;;0.38;79.97
77431;BME280;66498;48.564;19.272;2023-02-02T06:31:21;97002.19;;;0.28;80.71
77431;BME280;66498;48.564;19.272;2023-02-02T06:33:51;97002.78;;;0.30;81.07
77431;BME280;66498;48.564;19.272;2023-02-02T06:36:17;96996.97;;;0.36;79.88
77431;BME280;66498;48.564;19.272;2023-02-02T06:38:43;96996.91;;;0.44;79.49
77431;BME280;66498;48.564;19.272;2023-02-02T06:41:08;97004.50;;;0.45;79.65
77431;BME280;66498;48.564;19.272;2023-02-02T06:43:34;97000.38;;;0.59;78.66
77431;BME280;66498;48.564;19.272;2023-02-02T06:46:00;97001.94;;;0.68;77.15
77431;BME280;66498;48.564;19.272;2023-02-02T06:48:25;97010.31;;;0.70;78.15
77431;BME280;66498;48.564;19.272;2023-02-02T06:50:51;97008.47;;;0.79;77.69
77431;BME280;66498;48.564;19.272;2023-02-02T06:53:18;97011.13;;;0.94;76.39
77431;BME280;66498;48.564;19.272;2023-02-02T06:56:01;97008.47;;;1.02;75.67
77431;BME280;66498;48.564;19.272;2023-02-02T06:58:28;97012.38;;;0.98;75.47
77431;BME280;66498;48.564;19.272;2023-02-02T07:00:54;97009.09;;;1.04;75.98
77431;BME280;66498;48.564;19.272;2023-02-02T07:03:24;97010.69;;;1.05;74.54
77431;BME280;66498;48.564;19.272;2023-02-02T07:05:50;97010.31;;;1.16;74.19
77431;BME280;66498;48.564;19.272;2023-02-02T07:08:16;97014.94;;;1.21;74.44
77431;BME280;66498;48.564;19.272;2023-02-02T07:10:41;97023.44;;;1.30;74.27
77431;BME280;66498;48.564;19.272;2023-02-02T07:13:08;97018.88;;;1.32;73.08
77431;BME280;66498;48.564;19.272;2023-02-02T07:15:36;97022.66;;;1.44;72.30
77431;BME280;66498;48.564;19.272;2023-02-02T07:18:02;97015.16;;;1.34;72.88
77431;BME280;66498;48.564;19.272;2023-02-02T07:20:28;97013.13;;;1.45;71.91
77431;BME280;66498;48.564;19.272;2023-02-02T07:22:53;97012.22;;;1.52;71.75
77431;BME280;66498;48.564;19.272;2023-02-02T07:25:19;97017.84;;;1.56;71.32
77431;BME280;66498;48.564;19.272;2023-02-02T07:27:44;97039.28;;;1.64;71.22
77431;BME280;66498;48.564;19.272;2023-02-02T07:30:12;97037.78;;;1.70;71.05
77431;BME280;66498;48.564;19.272;2023-02-02T07:32:38;97039.56;;;1.84;69.80
77431;BME280;66498;48.564;19.272;2023-02-02T07:35:04;97041.06;;;1.94;70.39
77431;BME280;66498;48.564;19.272;2023-02-02T07:37:30;97044.09;;;1.82;69.91
77431;BME280;66498;48.564;19.272;2023-02-02T07:39:56;97048.28;;;1.54;71.74
77431;BME280;66498;48.564;19.272;2023-02-02T07:42:21;97049.81;;;1.78;70.68
77431;BME280;66498;48.564;19.272;2023-02-02T07:44:47;97055.00;;;1.93;69.78
77431;BME280;66498;48.564;19.272;2023-02-02T07:47:13;97045.53;;;2.00;69.42
77431;BME280;66498;48.564;19.272;2023-02-02T07:49:38;97045.47;;;2.08;67.78
77431;BME280;66498;48.564;19.272;2023-02-02T07:52:04;97062.59;;;2.09;69.34
77431;BME280;66498;48.564;19.272;2023-02-02T07:54:29;97061.97;;;1.92;69.75
77431;BME280;66498;48.564;19.272;2023-02-02T07:56:56;97056.34;;;1.74;71.54
77431;BME280;66498;48.564;19.272;2023-02-02T07:59:22;97070.53;;;1.78;72.27
77431;BME280;66498;48.564;19.272;2023-02-02T08:01:47;97069.72;;;2.07;69.82
77431;BME280;66498;48.564;19.272;2023-02-02T08:04:13;97068.31;;;2.19;68.27
77431;BME280;66498;48.564;19.272;2023-02-02T08:06:39;97068.59;;;2.24;69.94
77431;BME280;66498;48.564;19.272;2023-02-02T08:09:06;97072.78;;;2.25;69.33
77431;BME280;66498;48.564;19.272;2023-02-02T08:11:34;97070.78;;;2.27;69.66
77431;BME280;66498;48.564;19.272;2023-02-02T08:14:01;97060.06;;;2.30;67.33
77431;BME280;66498;48.564;19.272;2023-02-02T08:16:28;97068.38;;;2.41;68.84
77431;BME280;66498;48.564;19.272;2023-02-02T08:18:55;97075.25;;;2.48;69.00
77431;BME280;66498;48.564;19.272;2023-02-02T08:21:21;97080.06;;;2.36;69.48
77431;BME280;66498;48.564;19.272;2023-02-02T08:23:47;97075.16;;;2.27;70.29
77431;BME280;66498;48.564;19.272;2023-02-02T08:26:27;97078.31;;;2.22;69.92
77431;BME280;66498;48.564;19.272;2023-02-02T08:28:58;97084.72;;;2.26;71.18
77431;BME280;66498;48.564;19.272;2023-02-02T08:31:35;97080.72;;;2.39;70.49
77431;BME280;66498;48.564;19.272;2023-02-02T08:34:02;97082.88;;;2.35;70.78
77431;BME280;66498;48.564;19.272;2023-02-02T08:36:31;97089.38;;;2.46;70.33
77431;BME280;66498;48.564;19.272;2023-02-02T08:39:07;97089.88;;;2.41;72.45
77431;BME280;66498;48.564;19.272;2023-02-02T08:41:33;97090.53;;;2.28;72.12
77431;BME280;66498;48.564;19.272;2023-02-02T08:43:59;97089.47;;;2.23;73.22
77431;BME280;66498;48.564;19.272;2023-02-02T08:46:25;97086.53;;;2.26;73.17
77431;BME280;66498;48.564;19.272;2023-02-02T08:48:50;97084.34;;;2.44;72.98
77431;BME280;66498;48.564;19.272;2023-02-02T08:51:18;97087.94;;;2.43;72.69
77431;BME280;66498;48.564;19.272;2023-02-02T08:53:44;97090.97;;;2.62;72.13
77431;BME280;66498;48.564;19.272;2023-02-02T08:56:11;97091.31;;;2.58;71.53
77431;BME280;66498;48.564;19.272;2023-02-02T08:58:37;97097.56;;;2.64;72.22
77431;BME280;66498;48.564;19.272;2023-02-02T09:01:05;97093.16;;;2.65;71.66
77431;BME280;66498;48.564;19.272;2023-02-02T09:03:31;97098.06;;;2.74;71.68
77431;BME280;66498;48.564;19.272;2023-02-02T09:05:57;97092.88;;;2.89;70.77
77431;BME280;66498;48.564;19.272;2023-02-02T09:08:27;97100.16;;;3.00;71.12
77431;BME280;66498;48.564;19.272;2023-02-02T09:10:53;97095.13;;;2.99;71.35
77431;BME280;66498;48.564;19.272;2023-02-02T09:13:18;97092.00;;;2.82;70.53
77431;BME280;66498;48.564;19.272;2023-02-02T09:15:44;97093.31;;;2.78;71.21
77431;BME280;66498;48.564;19.272;2023-02-02T09:18:09;97097.19;;;2.67;70.08
77431;BME280;66498;48.564;19.272;2023-02-02T09:20:35;97090.50;;;2.73;68.52
77431;BME280;66498;48.564;19.272;2023-02-02T09:23:00;97095.38;;;2.82;69.67
77431;BME280;66498;48.564;19.272;2023-02-02T09:25:26;97088.94;;;2.78;69.35
77431;BME280;66498;48.564;19.272;2023-02-02T09:27:52;97099.22;;;2.87;69.65
77431;BME280;66498;48.564;19.272;2023-02-02T09:30:18;97101.53;;;2.81;69.28
77431;BME280;66498;48.564;19.272;2023-02-02T09:32:47;97096.41;;;2.88;69.92
77431;BME280;66498;48.564;19.272;2023-02-02T09:35:13;97105.91;;;2.96;69.28
77431;BME280;66498;48.564;19.272;2023-02-02T09:37:39;97105.81;;;2.89;69.88
77431;BME280;66498;48.564;19.272;2023-02-02T09:40:05;97107.00;;;2.87;69.91
77431;BME280;66498;48.564;19.272;2023-02-02T09:43:22;97103.09;;;2.76;70.52
77431;BME280;66498;48.564;19.272;2023-02-02T09:50:42;97110.84;;;2.76;69.99
77431;BME280;66498;48.564;19.272;2023-02-02T09:53:20;97118.63;;;2.61;70.13
77431;BME280;66498;48.564;19.272;2023-02-02T09:55:51;97113.53;;;2.68;72.01
77431;BME280;66498;48.564;19.272;2023-02-02T09:58:48;97116.41;;;2.58;70.71
77431;BME280;66498;48.564;19.272;2023-02-02T10:01:23;97107.19;;;2.70;70.79
77431;BME280;66498;48.564;19.272;2023-02-02T10:04:00;97120.44;;;2.75;70.31
77431;BME280;66498;48.564;19.272;2023-02-02T10:06:41;97098.25;;;2.73;70.01
77431;BME280;66498;48.564;19.272;2023-02-02T10:12:10;97116.84;;;2.76;71.01
77431;BME280;66498;48.564;19.272;2023-02-02T10:14:53;97115.16;;;2.69;70.74
77431;BME280;66498;48.564;19.272;2023-02-02T10:19:49;97092.72;;;2.76;70.32
77431;BME280;66498;48.564;19.272;2023-02-02T10:22:24;97107.16;;;2.85;70.08
77431;BME280;66498;48.564;19.272;2023-02-02T10:24:52;97102.88;;;2.92;69.27
77431;BME280;66498;48.564;19.272;2023-02-02T10:27:49;97099.72;;;2.97;69.68
77431;BME280;66498;48.564;19.272;2023-02-02T10:30:19;97108.59;;;3.09;70.47
77431;BME280;66498;48.564;19.272;2023-02-02T10:33:06;97110.75;;;2.84;68.97
77431;BME280;66498;48.564;19.272;2023-02-02T10:38:57;97113.41;;;2.91;70.86
77431;BME280;66498;48.564;19.272;2023-02-02T10:41:59;97109.88;;;2.77;71.26
77431;BME280;66498;48.564;19.272;2023-02-02T10:44:45;97097.81;;;2.69;70.10
77431;BME280;66498;48.564;19.272;2023-02-02T10:47:19;97110.34;;;2.66;70.06
77431;BME280;66498;48.564;19.272;2023-02-02T10:49:53;97108.25;;;2.76;70.44
77431;BME280;66498;48.564;19.272;2023-02-02T10:52:30;97098.50;;;2.78;70.03
77431;BME280;66498;48.564;19.272;2023-02-02T10:55:18;97105.41;;;2.71;70.68
77431;BME280;66498;48.564;19.272;2023-02-02T11:02:37;97113.53;;;2.82;70.27
77431;BME280;66498;48.564;19.272;2023-02-02T11:05:03;97106.19;;;2.71;70.67
77431;BME280;66498;48.564;19.272;2023-02-02T11:07:57;97103.44;;;2.73;71.08
77431;BME280;66498;48.564;19.272;2023-02-02T11:10:23;97112.97;;;2.87;71.03
77431;BME280;66498;48.564;19.272;2023-02-02T11:12:50;97101.84;;;2.72;71.09
77431;BME280;66498;48.564;19.272;2023-02-02T11:15:29;97102.69;;;2.94;71.73
77431;BME280;66498;48.564;19.272;2023-02-02T11:17:55;97098.84;;;2.90;71.77
77431;BME280;66498;48.564;19.272;2023-02-02T11:20:31;97097.28;;;2.74;71.32
77431;BME280;66498;48.564;19.272;2023-02-02T11:23:02;97104.56;;;2.85;71.16
77431;BME280;66498;48.564;19.272;2023-02-02T11:25:32;97099.22;;;2.87;71.93
77431;BME280;66498;48.564;19.272;2023-02-02T11:28:00;97090.72;;;2.93;71.38
77431;BME280;66498;48.564;19.272;2023-02-02T11:30:30;97095.75;;;2.79;70.76
77431;BME280;66498;48.564;19.272;2023-02-02T11:32:58;97090.28;;;2.74;71.67
77431;BME280;66498;48.564;19.272;2023-02-02T11:35:26;97095.81;;;2.86;71.56
77431;BME280;66498;48.564;19.272;2023-02-02T11:38:13;97082.38;;;2.97;71.23
77431;BME280;66498;48.564;19.272;2023-02-02T11:40:44;97084.38;;;2.80;70.96
77431;BME280;66498;48.564;19.272;2023-02-02T11:45:44;97090.44;;;3.09;69.60
77431;BME280;66498;48.564;19.272;2023-02-02T11:48:36;97085.81;;;3.04;70.87
77431;BME280;66498;48.564;19.272;2023-02-02T11:51:03;97092.16;;;3.17;69.74
77431;BME280;66498;48.564;19.272;2023-02-02T11:53:46;97091.28;;;3.10;70.60
77431;BME280;66498;48.564;19.272;2023-02-02T11:56:21;97081.72;;;2.95;69.50
77431;BME280;66498;48.564;19.272;2023-02-02T11:58:50;97077.91;;;2.91;70.22
77431;BME280;66498;48.564;19.272;2023-02-02T12:04:33;97082.94;;;2.93;71.21
77431;BME280;66498;48.564;19.272;2023-02-02T12:06:58;97083.09;;;2.91;70.88
77431;BME280;66498;48.564;19.272;2023-02-02T12:09:25;97091.88;;;2.90;70.80
77431;BME280;66498;48.564;19.272;2023-02-02T12:36:46;97081.13;;;3.36;67.68
77431;BME280;66498;48.564;19.272;2023-02-02T12:44:43;97079.34;;;3.37;68.39
77431;BME280;66498;48.564;19.272;2023-02-02T12:55:09;97076.69;;;3.51;67.30
77431;BME280;66498;48.564;19.272;2023-02-02T13:02:59;97088.66;;;3.52;67.30
77431;BME280;66498;48.564;19.272;2023-02-02T13:06:02;97085.03;;;3.47;66.70
77431;BME280;66498;48.564;19.272;2023-02-02T13:09:10;97082.81;;;3.44;66.31
77431;BME280;66498;48.564;19.272;2023-02-02T13:14:23;97081.31;;;3.35;66.96
77431;BME280;66498;48.564;19.272;2023-02-02T13:16:53;97092.50;;;3.35;67.15
77431;BME280;66498;48.564;19.272;2023-02-02T13:19:44;97095.09;;;3.35;66.89
77431;BME280;66498;48.564;19.272;2023-02-02T13:22:21;97100.06;;;3.30;67.44
77431;BME280;66498;48.564;19.272;2023-02-02T13:24:50;97102.44;;;3.31;67.19
77431;BME280;66498;48.564;19.272;2023-02-02T13:27:19;97110.59;;;3.28;67.47
77431;BME280;66498;48.564;19.272;2023-02-02T13:29:59;97110.84;;;3.34;66.83
77431;BME280;66498;48.564;19.272;2023-02-02T13:32:31;97110.22;;;3.31;67.13
77431;BME280;66498;48.564;19.272;2023-02-02T13:35:02;97111.75;;;3.26;67.36
77431;BME280;66498;48.564;19.272;2023-02-02T13:40:40;97113.03;;;3.30;66.18
77431;BME280;66498;48.564;19.272;2023-02-02T13:43:24;97127.78;;;3.29;67.57
77431;BME280;66498;48.564;19.272;2023-02-02T13:48:56;97121.66;;;3.37;66.47
77431;BME280;66498;48.564;19.272;2023-02-02T13:51:49;97128.28;;;3.40;66.04
77431;BME280;66498;48.564;19.272;2023-02-02T14:02:53;97131.66;;;3.19;67.26
77431;BME280;66498;48.564;19.272;2023-02-02T14:05:34;97136.47;;;3.22;68.48
77431;BME280;66498;48.564;19.272;2023-02-02T14:08:16;97129.75;;;3.27;67.63
77431;BME280;66498;48.564;19.272;2023-02-02T14:13:28;97125.84;;;3.17;67.32
77431;BME280;66498;48.564;19.272;2023-02-02T14:19:00;97137.13;;;3.09;67.99
77431;BME280;66498;48.564;19.272;2023-02-02T14:23:59;97151.72;;;3.10;67.24
77431;BME280;66498;48.564;19.272;2023-02-02T14:26:44;97127.50;;;3.03;68.92
77431;BME280;66498;48.564;19.272;2023-02-02T14:34:50;97151.81;;;3.02;68.08
77431;BME280;66498;48.564;19.272;2023-02-02T14:37:33;97142.63;;;2.99;67.74
77431;BME280;66498;48.564;19.272;2023-02-02T14:45:42;97135.38;;;2.95;66.46
77431;BME280;66498;48.564;19.272;2023-02-02T14:48:21;97129.59;;;2.93;67.08
77431;BME280;66498;48.564;19.272;2023-02-02T14:50:56;97145.69;;;2.88;67.28
77431;BME280;66498;48.564;19.272;2023-02-02T14:53:35;97147.75;;;2.78;68.17
77431;BME280;66498;48.564;19.272;2023-02-02T14:56:11;97147.66;;;2.86;67.18
77431;BME280;66498;48.564;19.272;2023-02-02T14:58:52;97147.47;;;2.88;66.86
77431;BME280;66498;48.564;19.272;2023-02-02T15:16:55;97185.38;;;2.74;68.10
77431;BME280;66498;48.564;19.272;2023-02-02T15:19:30;97190.41;;;2.75;68.69
77431;BME280;66498;48.564;19.272;2023-02-02T15:25:12;97187.97;;;2.74;68.87
77431;BME280;66498;48.564;19.272;2023-02-02T15:27:49;97208.09;;;2.87;67.35
77431;BME280;66498;48.564;19.272;2023-02-02T15:30:16;97217.75;;;2.78;68.24
77431;BME280;66498;48.564;19.272;2023-02-02T15:32:42;97226.78;;;2.82;67.96
77431;BME280;66498;48.564;19.272;2023-02-02T15:35:29;97234.00;;;2.87;67.28
77431;BME280;66498;48.564;19.272;2023-02-02T15:38:00;97244.56;;;2.85;67.81
77431;BME280;66498;48.564;19.272;2023-02-02T15:40:29;97241.97;;;2.85;67.97
77431;BME280;66498;48.564;19.272;2023-02-02T15:43:05;97249.13;;;2.83;67.49
77431;BME280;66498;48.564;19.272;2023-02-02T15:45:49;97260.00;;;2.78;68.59
77431;BME280;66498;48.564;19.272;2023-02-02T15:48:30;97257.34;;;2.72;69.01
77431;BME280;66498;48.564;19.272;2023-02-02T15:51:13;97274.41;;;2.66;68.66
77431;BME280;66498;48.564;19.272;2023-02-02T15:58:54;97285.41;;;2.30;70.77
77431;BME280;66498;48.564;19.272;2023-02-02T16:01:22;97284.13;;;2.11;70.94
77431;BME280;66498;48.564;19.272;2023-02-02T16:03:58;97283.34;;;2.26;69.46
77431;BME280;66498;48.564;19.272;2023-02-02T16:06:29;97278.00;;;2.27;70.02
77431;BME280;66498;48.564;19.272;2023-02-02T16:08:55;97275.13;;;2.22;70.11
77431;BME280;66498;48.564;19.272;2023-02-02T16:11:22;97283.69;;;2.23;69.84
77431;BME280;66498;48.564;19.272;2023-02-02T16:14:02;97291.66;;;2.21;70.00
77431;BME280;66498;48.564;19.272;2023-02-02T16:16:38;97293.84;;;2.09;71.04
77431;BME280;66498;48.564;19.272;2023-02-02T16:21:52;97298.38;;;1.84;73.12
77431;BME280;66498;48.564;19.272;2023-02-02T16:24:27;97305.34;;;1.84;73.72
77431;BME280;66498;48.564;19.272;2023-02-02T16:26:58;97303.09;;;1.81;73.55
77431;BME280;66498;48.564;19.272;2023-02-02T16:29:25;97304.34;;;1.62;75.59
77431;BME280;66498;48.564;19.272;2023-02-02T16:31:53;97291.78;;;1.51;77.41
77431;BME280;66498;48.564;19.272;2023-02-02T16:37:15;97314.56;;;1.16;81.03
77431;BME280;66498;48.564;19.272;2023-02-02T16:39:41;97322.50;;;1.06;82.16
77431;BME280;66498;48.564;19.272;2023-02-02T16:44:46;97324.00;;;0.92;82.37
77431;BME280;66498;48.564;19.272;2023-02-02T16:49:51;97358.56;;;1.00;80.78
77431;BME280;66498;48.564;19.272;2023-02-02T16:52:20;97372.75;;;1.04;80.54
77431;BME280;66498;48.564;19.272;2023-02-02T16:54:54;97380.66;;;1.10;80.25
77431;BME280;66498;48.564;19.272;2023-02-02T16:57:29;97377.44;;;1.08;80.46
77431;BME280;66498;48.564;19.272;2023-02-02T17:00:03;97383.06;;;1.20;79.31
77431;BME280;66498;48.564;19.272;2023-02-02T17:02:39;97396.81;;;1.21;79.22
77431;BME280;66498;48.564;19.272;2023-02-02T17:05:48;97385.81;;;1.27;78.83
77431;BME280;66498;48.564;19.272;2023-02-02T17:08:28;97392.25;;;1.31;78.10
77431;BME280;66498;48.564;19.272;2023-02-02T17:13:46;97399.50;;;1.35;77.69
77431;BME280;66498;48.564;19.272;2023-02-02T17:16:14;97403.06;;;1.34;77.65
77431;BME280;66498;48.564;19.272;2023-02-02T17:18:41;97410.03;;;1.34;77.80
77431;BME280;66498;48.564;19.272;2023-02-02T17:21:13;97417.94;;;1.32;77.41
77431;BME280;66498;48.564;19.272;2023-02-02T17:23:39;97423.28;;;1.31;77.69
77431;BME280;66498;48.564;19.272;2023-02-02T17:26:07;97418.94;;;1.23;78.13
77431;BME280;66498;48.564;19.272;2023-02-02T17:28:33;97426.34;;;1.34;77.63
77431;BME280;66498;48.564;19.272;2023-02-02T17:31:08;97436.38;;;1.37;77.53
77431;BME280;66498;48.564;19.272;2023-02-02T17:33:35;97438.59;;;1.49;76.99
77431;BME280;66498;48.564;19.272;2023-02-02T17:36:01;97447.81;;;1.51;76.97
77431;BME280;66498;48.564;19.272;2023-02-02T17:38:27;97467.38;;;1.54;77.06
77431;BME280;66498;48.564;19.272;2023-02-02T17:40:54;97459.47;;;1.47;77.53
77431;BME280;66498;48.564;19.272;2023-02-02T17:43:22;97479.97;;;1.49;76.97
77431;BME280;66498;48.564;19.272;2023-02-02T17:46:25;97482.09;;;1.45;77.46
77431;BME280;66498;48.564;19.272;2023-02-02T17:48:56;97495.50;;;1.49;77.26
77431;BME280;66498;48.564;19.272;2023-02-02T17:51:22;97498.56;;;1.60;76.58
77431;BME280;66498;48.564;19.272;2023-02-02T17:53:47;97504.88;;;1.41;77.27
77431;BME280;66498;48.564;19.272;2023-02-02T17:59:07;97509.25;;;1.41;77.11
77431;BME280;66498;48.564;19.272;2023-02-02T18:01:34;97519.28;;;1.44;77.30
77431;BME280;66498;48.564;19.272;2023-02-02T18:04:01;97516.84;;;1.42;76.61
77431;BME280;66498;48.564;19.272;2023-02-02T18:06:27;97513.94;;;1.46;76.59
77431;BME280;66498;48.564;19.272;2023-02-02T18:08:52;97523.97;;;1.40;76.55
77431;BME280;66498;48.564;19.272;2023-02-02T18:11:18;97521.22;;;1.34;77.53
77431;BME280;66498;48.564;19.272;2023-02-02T18:13:44;97533.84;;;1.12;77.87
77431;BME280;66498;48.564;19.272;2023-02-02T18:16:11;97527.38;;;1.25;77.62
77431;BME280;66498;48.564;19.272;2023-02-02T18:18:37;97520.75;;;1.06;78.30
77431;BME280;66498;48.564;19.272;2023-02-02T18:21:07;97515.75;;;1.04;78.31
77431;BME280;66498;48.564;19.272;2023-02-02T18:23:33;97513.47;;;1.01;78.13
77431;BME280;66498;48.564;19.272;2023-02-02T18:26:16;97514.44;;;1.00;78.31
77431;BME280;66498;48.564;19.272;2023-02-02T18:28:43;97522.69;;;0.96;78.10
77431;BME280;66498;48.564;19.272;2023-02-02T18:31:11;97513.31;;;0.94;77.68
77431;BME280;66498;48.564;19.272;2023-02-02T18:33:38;97514.59;;;0.90;77.46
77431;BME280;66498;48.564;19.272;2023-02-02T18:36:10;97513.00;;;0.98;76.58
77431;BME280;66498;48.564;19.272;2023-02-02T18:38:40;97525.78;;;0.99;76.77
77431;BME280;66498;48.564;19.272;2023-02-02T18:41:08;97525.91;;;0.98;76.85
77431;BME280;66498;48.564;19.272;2023-02-02T18:43:33;97519.16;;;0.88;77.18
77431;BME280;66498;48.564;19.272;2023-02-02T18:46:00;97514.13;;;0.95;76.62
77431;BME280;66498;48.564;19.272;2023-02-02T18:48:26;97516.53;;;1.05;76.06
77431;BME280;66498;48.564;19.272;2023-02-02T18:50:53;97525.59;;;0.92;76.09
77431;BME280;66498;48.564;19.272;2023-02-02T18:53:19;97538.69;;;1.07;75.21
77431;BME280;66498;48.564;19.272;2023-02-02T18:55:44;97528.19;;;1.33;72.26
77431;BME280;66498;48.564;19.272;2023-02-02T18:58:10;97524.81;;;1.16;73.65
77431;BME280;66498;48.564;19.272;2023-02-02T19:00:39;97539.69;;;1.23;73.22
77431;BME280;66498;48.564;19.272;2023-02-02T19:03:05;97539.97;;;1.11;74.16
77431;BME280;66498;48.564;19.272;2023-02-02T19:05:31;97548.22;;;0.99;74.31
77431;BME280;66498;48.564;19.272;2023-02-02T19:08:15;97549.34;;;1.04;73.73
77431;BME280;66498;48.564;19.272;2023-02-02T19:10:41;97544.97;;;0.97;74.29
77431;BME280;66498;48.564;19.272;2023-02-02T19:15:39;97551.44;;;1.01;73.92
77431;BME280;66498;48.564;19.272;2023-02-02T19:18:24;97550.66;;;0.92;74.42
77431;BME280;66498;48.564;19.272;2023-02-02T19:20:50;97545.13;;;0.87;74.73
77431;BME280;66498;48.564;19.272;2023-02-02T19:23:27;97559.03;;;0.86;74.19
77431;BME280;66498;48.564;19.272;2023-02-02T19:25:54;97551.75;;;0.98;72.73
77431;BME280;66498;48.564;19.272;2023-02-02T19:28:28;97566.16;;;1.25;70.50
77431;BME280;66498;48.564;19.272;2023-02-02T19:30:57;97559.38;;;1.40;69.72
77431;BME280;66498;48.564;19.272;2023-02-02T19:33:38;97558.75;;;1.30;70.23
77431;BME280;66498;48.564;19.272;2023-02-02T19:36:09;97557.91;;;1.62;67.57
77431;BME280;66498;48.564;19.272;2023-02-02T19:38:37;97564.72;;;1.47;69.65
77431;BME280;66498;48.564;19.272;2023-02-02T19:41:18;97555.50;;;1.44;69.77
77431;BME280;66498;48.564;19.272;2023-02-02T19:43:48;97553.56;;;1.38;70.22
77431;BME280;66498;48.564;19.272;2023-02-02T19:46:19;97562.13;;;1.47;69.61
77431;BME280;66498;48.564;19.272;2023-02-02T19:48:46;97568.75;;;1.41;69.91
77431;BME280;66498;48.564;19.272;2023-02-02T19:54:32;97580.88;;;1.24;71.01
77431;BME280;66498;48.564;19.272;2023-02-02T19:57:04;97588.97;;;1.29;70.84